Upton, Utah
Current Conditions -  °F | °C
As of 8:53 AM on Wednesday 26 Nov 2014 (Local Time) from KEVW Reporting Station
Clear Clear  
Wind Chill: 27°   Ceiling: Unl
Heat Index: 37°   Visibility: 10mi
Dew Point: 29°   Wind: 18mph
Humidity: 73%   Direction: 260°W
Pressure: 30.36"   Gusts: NA
Location:  40.9431°N, 111.212°W
Report Text: KEVW 261553Z AUTO 26016KT 10SM CLR 03/M02 A3036 RMK AO2 SLP272 T00281017
Loading
Personal Weather Stations






























Interactive Weather Map New forecast layout! Learn more

10-Day Weather Forecast

Advertisements
Track Severe Weather on mobile